createdAt,value
2023-04-24T00:02:00.232Z,100000.38
2023-04-24T00:04:27.765Z,100000.34
2023-04-24T00:07:01.252Z,100013.41
2023-04-24T00:09:28.483Z,100020.34
2023-04-24T00:11:55.793Z,99995.88
2023-04-24T00:14:23.341Z,100005.56
2023-04-24T00:16:50.423Z,100018.53
2023-04-24T00:19:17.608Z,100015.06
2023-04-24T00:21:44.851Z,100005.38
2023-04-24T00:24:11.990Z,100014.09
2023-04-24T00:26:39.033Z,99974.81
2023-04-24T00:29:06.134Z,100014.09
2023-04-24T00:31:35.965Z,100009.72
2023-04-24T00:34:04.108Z,99986.16
2023-04-24T00:36:32.053Z,100010.59
2023-04-24T00:38:59.346Z,100010.56
2023-04-24T00:41:26.969Z,100003.56
2023-04-24T00:43:54.141Z,100011.41
2023-04-24T00:46:22.161Z,100016.56
2023-04-24T00:48:49.221Z,100013.06
2023-04-24T00:51:16.949Z,100013.94
2023-04-24T00:53:43.987Z,99996.44
2023-04-24T00:56:11.781Z,99973.72
2023-04-24T00:58:39.366Z,100011.25
2023-04-24T01:01:08.375Z,100016.44
2023-04-24T01:03:38.346Z,100009.44
2023-04-24T01:06:06.574Z,99993.66
2023-04-24T01:08:35.824Z,100011.03
2023-04-24T01:11:06.108Z,100004.88
2023-04-24T01:13:34.160Z,100014.47
2023-04-24T01:16:02.413Z,100006.66
2023-04-24T01:18:30.145Z,99993.38
2023-04-24T01:21:00.267Z,100006.50
2023-04-24T01:23:27.886Z,99995.13
2023-04-24T01:25:55.286Z,100007.34
2023-04-24T01:28:23.370Z,100000.28
2023-04-24T01:30:51.020Z,100011.56
2023-04-24T01:33:18.786Z,100017.56
2023-04-24T01:35:46.419Z,100006.19
2023-04-24T01:38:13.465Z,100014.84
2023-04-24T01:40:40.795Z,100004.16
2023-04-24T01:43:08.307Z,100013.81
2023-04-24T01:45:35.442Z,100006.00
2023-04-24T01:48:05.232Z,100010.34
2023-04-24T01:50:32.611Z,100010.34
2023-04-24T01:52:59.725Z,99986.69
2023-04-24T01:55:27.127Z,99992.81
2023-04-24T01:57:56.861Z,100005.00
2023-04-24T02:00:25.700Z,99994.44
2023-04-24T02:02:54.690Z,99986.66
2023-04-24T02:05:21.879Z,100005.88
2023-04-24T02:07:48.906Z,100005.88
2023-04-24T02:10:15.965Z,99999.75
2023-04-24T02:12:44.458Z,100011.06
2023-04-24T02:15:12.757Z,100011.84
2023-04-24T02:17:40.333Z,100011.00
2023-04-24T02:20:09.540Z,100005.78
2023-04-24T02:22:36.774Z,99985.69
2023-04-24T02:25:04.609Z,99990.94
2023-04-24T02:27:34.478Z,99992.63
2023-04-24T02:30:01.799Z,100003.97
2023-04-24T02:32:35.034Z,100010.13
2023-04-24T02:35:02.631Z,100010.13
2023-04-24T02:37:31.230Z,100015.34
2023-04-24T02:39:58.225Z,100012.75
2023-04-24T02:42:25.389Z,100001.38
2023-04-24T02:44:52.516Z,100004.03
2023-04-24T02:47:19.582Z,100011.88
2023-04-24T02:49:46.883Z,100017.94
2023-04-24T02:52:14.532Z,100023.09
2023-04-24T02:54:41.597Z,100015.22
2023-04-24T02:57:08.604Z,100027.50
2023-04-24T02:59:35.936Z,100030.13
2023-04-24T03:02:02.973Z,100035.34
2023-04-24T03:04:30.204Z,100015.31
2023-04-24T03:06:57.492Z,100025.94
2023-04-24T03:09:24.743Z,99984.13
2023-04-24T03:11:51.809Z,100030.56
2023-04-24T03:14:18.857Z,100032.50
2023-04-24T03:16:46.151Z,100028.38
2023-04-24T03:19:13.836Z,100011.00
2023-04-24T03:21:58.244Z,100012.03
2023-04-24T03:24:25.833Z,100028.78
2023-04-24T03:26:53.076Z,100035.03
2023-04-24T03:29:38.308Z,100038.66
2023-04-24T03:32:05.406Z,100019.56
2023-04-24T03:34:32.933Z,100032.69
2023-04-24T03:36:59.974Z,100041.47
2023-04-24T03:39:28.465Z,100038.91
2023-04-24T03:41:56.980Z,100040.78
2023-04-24T03:44:31.359Z,100035.56
2023-04-24T03:46:59.596Z,100043.50
2023-04-24T03:49:27.154Z,100035.75
2023-04-24T03:51:54.997Z,100010.59
2023-04-24T03:54:24.604Z,100046.56
2023-04-24T03:56:53.235Z,100039.72
2023-04-24T03:59:20.913Z,100018.94
2023-04-24T04:01:58.434Z,100039.97
2023-04-24T04:04:26.129Z,100054.84
2023-04-24T04:06:54.414Z,100046.16
2023-04-24T04:09:22.589Z,100008.72
2023-04-24T04:11:49.577Z,100053.19
2023-04-24T04:14:16.608Z,100040.13
2023-04-24T04:16:47.301Z,100057.56
2023-04-24T04:19:15.114Z,100048.84
2023-04-24T04:21:42.448Z,100040.97
2023-04-24T04:24:31.816Z,100019.09
2023-04-24T04:27:00.415Z,100038.16
2023-04-24T04:29:35.736Z,100052.88
2023-04-24T04:32:05.392Z,100039.75
2023-04-24T04:34:32.611Z,100051.06
2023-04-24T04:37:03.292Z,100018.88
2023-04-24T04:39:46.871Z,100057.19
2023-04-24T04:42:20.122Z,100046.75
2023-04-24T04:44:47.407Z,100056.31
2023-04-24T04:47:25.937Z,100061.41
2023-04-24T04:49:54.808Z,100050.81
2023-04-24T04:52:27.717Z,100056.78
2023-04-24T04:55:24.356Z,100054.78
2023-04-24T04:58:10.056Z,100056.22
2023-04-24T05:00:38.721Z,100046.34
2023-04-24T05:03:22.433Z,100011.22
2023-04-24T05:05:58.984Z,100038.84
2023-04-24T05:08:27.776Z,100059.66
2023-04-24T05:10:56.555Z,100024.69
2023-04-24T05:13:38.352Z,100051.56
2023-04-24T05:16:12.696Z,100047.03
2023-04-24T05:18:40.405Z,100062.56
2023-04-24T05:21:09.540Z,100051.94
2023-04-24T05:23:38.625Z,100051.56
2023-04-24T05:26:07.885Z,100055.66
2023-04-24T05:28:37.821Z,100049.28
2023-04-24T05:31:09.408Z,100051.41
2023-04-24T05:33:36.902Z,100056.16
2023-04-24T05:36:04.696Z,100061.88
2023-04-24T05:38:31.764Z,100060.00
2023-04-24T05:40:59.103Z,100056.94
2023-04-24T05:43:26.391Z,100046.91
2023-04-24T05:45:54.593Z,100064.66
2023-04-24T05:48:23.522Z,100016.56
2023-04-24T05:50:51.865Z,100061.31
2023-04-24T05:53:19.151Z,100043.44
2023-04-24T05:55:46.482Z,100049.94
2023-04-24T05:58:13.878Z,100056.47
2023-04-24T06:00:43.655Z,100046.53
2023-04-24T06:03:11.101Z,100049.13
2023-04-24T06:05:38.512Z,100047.09
2023-04-24T06:08:05.508Z,100048.69
2023-04-24T06:10:36.921Z,100002.72
2023-04-24T06:13:04.855Z,100054.59
2023-04-24T06:15:35.141Z,100052.44
2023-04-24T06:18:07.723Z,100048.63
2023-04-24T06:20:36.324Z,100043.72
2023-04-24T06:23:03.474Z,100049.09
2023-04-24T06:25:31.777Z,100061.06
2023-04-24T06:27:59.284Z,100061.31
2023-04-24T06:30:26.397Z,100041.63
2023-04-24T06:32:53.769Z,100046.25
2023-04-24T06:35:21.617Z,100014.38
2023-04-24T06:37:48.677Z,100064.50
2023-04-24T06:40:16.000Z,100063.34
2023-04-24T06:42:43.597Z,100048.00
2023-04-24T06:45:11.129Z,100044.28
2023-04-24T06:47:39.098Z,100048.75
2023-04-24T06:50:06.934Z,100057.91
2023-04-24T06:52:34.092Z,100062.91
2023-04-24T06:55:03.471Z,100059.25
2023-04-24T06:57:33.296Z,100043.56
2023-04-24T07:00:00.387Z,100039.72
2023-04-24T07:02:27.623Z,100056.66
2023-04-24T07:04:54.874Z,100049.09
2023-04-24T07:07:23.566Z,100067.03
2023-04-24T07:09:52.135Z,100059.28
2023-04-24T07:12:21.692Z,100058.78
2023-04-24T07:14:49.230Z,100044.47
2023-04-24T07:17:16.273Z,100068.13
2023-04-24T07:19:43.740Z,100053.53
2023-04-24T07:22:17.739Z,100038.38
2023-04-24T07:24:45.650Z,100050.72
2023-04-24T07:27:13.237Z,100056.03
2023-04-24T07:29:41.766Z,100051.59
2023-04-24T07:32:10.254Z,100047.50
2023-04-24T07:34:37.462Z,100061.59
2023-04-24T07:37:04.635Z,100054.91
2023-04-24T07:39:31.770Z,100044.00
2023-04-24T07:42:00.208Z,100041.00
2023-04-24T07:44:27.416Z,100055.59
2023-04-24T07:46:55.068Z,100051.00
2023-04-24T07:49:22.398Z,100052.81
2023-04-24T07:51:50.812Z,100057.44
2023-04-24T07:54:17.945Z,100034.13
2023-04-24T07:56:45.459Z,100033.19
2023-04-24T07:59:12.687Z,100046.50
2023-04-24T08:01:39.789Z,100022.13
2023-04-24T08:04:07.236Z,100039.53
2023-04-24T08:06:34.602Z,100054.69
2023-04-24T08:09:01.981Z,100052.56
2023-04-24T08:11:29.188Z,100042.41
2023-04-24T08:13:56.691Z,100009.66
2023-04-24T08:16:25.265Z,100042.06
2023-04-24T08:18:54.043Z,100048.78
2023-04-24T08:21:21.832Z,100021.34
2023-04-24T08:23:48.863Z,100037.69
2023-04-24T08:26:16.072Z,100041.69
2023-04-24T08:28:43.752Z,100030.19
2023-04-24T08:31:11.267Z,100040.03
2023-04-24T08:33:38.361Z,100036.34
2023-04-24T08:36:06.545Z,100005.56
2023-04-24T08:38:34.228Z,100019.41
2023-04-24T08:41:02.485Z,100023.69
2023-04-24T08:43:29.955Z,99998.09
2023-04-24T08:45:58.362Z,99984.31
2023-04-24T08:48:31.297Z,100018.97
2023-04-24T08:51:00.654Z,99999.66
2023-04-24T08:53:28.104Z,100017.47
2023-04-24T08:55:57.865Z,100004.88
2023-04-24T08:58:29.300Z,100018.22
2023-04-24T09:00:56.889Z,99973.44
2023-04-24T09:03:24.724Z,100015.31
2023-04-24T09:05:53.618Z,100005.78
2023-04-24T09:08:21.893Z,99998.84
2023-04-24T09:10:51.207Z,100015.94
2023-04-24T09:13:21.127Z,100023.53
2023-04-24T09:15:48.301Z,100009.56
2023-04-24T09:18:15.436Z,100002.97
2023-04-24T09:21:01.574Z,100007.81
2023-04-24T09:23:30.588Z,100012.56
2023-04-24T09:25:58.846Z,99986.38
2023-04-24T09:28:32.689Z,99990.78
2023-04-24T09:31:07.277Z,99998.91
2023-04-24T09:33:34.606Z,99993.63
2023-04-24T09:36:01.933Z,99992.09
2023-04-24T09:38:39.417Z,99975.66
2023-04-24T09:41:08.669Z,99972.09
2023-04-24T09:43:36.592Z,99975.94
2023-04-24T09:46:10.685Z,99983.88
2023-04-24T09:48:38.761Z,99981.81
2023-04-24T09:51:12.456Z,99975.72
2023-04-24T09:53:42.774Z,99970.25
2023-04-24T09:56:14.227Z,99960.97
2023-04-24T09:58:41.357Z,99964.44
2023-04-24T10:01:08.479Z,99971.16
2023-04-24T10:03:36.738Z,99960.06
2023-04-24T10:06:09.923Z,99931.38
2023-04-24T10:08:38.823Z,99953.59
2023-04-24T10:11:06.924Z,99944.38
2023-04-24T10:13:35.044Z,99964.47
2023-04-24T10:16:04.500Z,99965.50
2023-04-24T10:18:31.999Z,99941.47
2023-04-24T10:21:01.366Z,99937.88
2023-04-24T10:23:30.121Z,99931.19
2023-04-24T10:25:58.025Z,99933.16
2023-04-24T10:28:26.115Z,99947.78
2023-04-24T10:30:56.426Z,99927.00
2023-04-24T10:33:24.879Z,99930.59
2023-04-24T10:35:52.923Z,99924.88
2023-04-24T10:38:26.148Z,99941.56
2023-04-24T10:41:07.649Z,99928.03
2023-04-24T10:43:35.114Z,99932.13
2023-04-24T10:46:04.372Z,99935.50
2023-04-24T10:48:31.924Z,99917.88
2023-04-24T10:50:59.190Z,99947.22
2023-04-24T10:53:29.950Z,99926.22
2023-04-24T10:56:14.614Z,99927.41
2023-04-24T10:58:46.070Z,99924.16
2023-04-24T11:01:31.138Z,99923.09
2023-04-24T11:04:03.976Z,99920.72
2023-04-24T11:06:38.395Z,99926.72
2023-04-24T11:09:12.248Z,99918.75
2023-04-24T11:11:45.472Z,99914.44
2023-04-24T11:14:16.099Z,99917.47
2023-04-24T11:16:53.649Z,99903.66
2023-04-24T11:19:25.127Z,99903.16
2023-04-24T11:22:14.974Z,99911.09
2023-04-24T11:24:54.248Z,99900.38
2023-04-24T11:27:41.254Z,99902.25
2023-04-24T11:30:08.922Z,99914.31
2023-04-24T11:32:44.037Z,99891.16
2023-04-24T11:35:19.696Z,99894.47
2023-04-24T11:40:24.266Z,99883.38
2023-04-24T11:42:53.626Z,99881.81
2023-04-24T11:45:25.142Z,99889.28
2023-04-24T11:47:52.269Z,99881.81
2023-04-24T11:50:23.908Z,99881.88
2023-04-24T11:52:51.996Z,99870.75
2023-04-24T11:55:19.838Z,99882.59
2023-04-24T11:57:52.043Z,99857.91
2023-04-24T12:00:27.455Z,99857.47
2023-04-24T12:03:09.017Z,99815.72
2023-04-24T12:05:37.277Z,99856.53
2023-04-24T12:08:05.250Z,99860.66
2023-04-24T12:10:33.854Z,99867.28
2023-04-24T12:13:01.593Z,99862.81
2023-04-24T12:15:28.954Z,99862.72
2023-04-24T12:17:56.880Z,99820.66
2023-04-24T12:20:31.323Z,99854.66
2023-04-24T12:23:00.942Z,99846.63
2023-04-24T12:25:30.380Z,99854.16
2023-04-24T12:28:12.242Z,99852.38
2023-04-24T12:30:49.907Z,99836.31
2023-04-24T12:33:21.520Z,99839.25
2023-04-24T12:35:50.239Z,99836.47
2023-04-24T12:38:19.026Z,99817.06
2023-04-24T12:40:46.118Z,99843.50
2023-04-24T12:43:17.599Z,99839.25
2023-04-24T12:45:46.157Z,99840.25
2023-04-24T12:48:15.285Z,99836.81
2023-04-24T12:50:45.932Z,99844.63
2023-04-24T12:53:13.826Z,99835.31
2023-04-24T12:55:41.456Z,99830.81
2023-04-24T12:58:09.080Z,99806.47
2023-04-24T13:00:36.297Z,99795.72
2023-04-24T13:03:04.373Z,99825.16
2023-04-24T13:05:31.963Z,99813.75
2023-04-24T13:07:59.364Z,99811.69
2023-04-24T13:10:26.515Z,99819.06
2023-04-24T13:12:53.656Z,99811.09
2023-04-24T13:15:21.187Z,99810.84
2023-04-24T13:17:48.454Z,99809.75
2023-04-24T13:20:15.583Z,99811.34
2023-04-24T13:22:42.651Z,99805.38
2023-04-24T13:25:10.358Z,99805.16
2023-04-24T13:27:40.784Z,99798.91
2023-04-24T13:30:08.649Z,99801.28
2023-04-24T13:32:37.783Z,99803.72
2023-04-24T13:35:05.231Z,99744.72
2023-04-24T13:37:34.080Z,99786.38
2023-04-24T13:40:01.245Z,99803.03
2023-04-24T13:42:31.017Z,99751.16
2023-04-24T13:44:58.045Z,99788.53
2023-04-24T13:47:25.090Z,99784.19
2023-04-24T13:49:52.451Z,99788.47
2023-04-24T13:52:19.453Z,99774.66
2023-04-24T13:54:46.492Z,99782.47
2023-04-24T13:57:15.141Z,99770.31
2023-04-24T13:59:42.294Z,99776.53
2023-04-24T14:02:09.429Z,99782.53
2023-04-24T14:04:36.718Z,99759.22
2023-04-24T14:07:03.900Z,99774.53
2023-04-24T14:09:30.884Z,99733.84
2023-04-24T14:11:58.148Z,99754.63
2023-04-24T14:14:25.198Z,99754.72
2023-04-24T14:16:52.303Z,99763.53
2023-04-24T14:19:19.474Z,99752.94
2023-04-24T14:21:46.496Z,99755.66
2023-04-24T14:24:13.507Z,99760.94
2023-04-24T14:26:40.529Z,99759.34
2023-04-24T14:29:14.599Z,99707.88
2023-04-24T14:31:43.132Z,99757.31
2023-04-24T14:34:10.445Z,99751.44
2023-04-24T14:36:37.580Z,99756.91
2023-04-24T14:39:08.355Z,99749.41
2023-04-24T14:41:37.085Z,99745.47
2023-04-24T14:44:05.032Z,99747.19
2023-04-24T14:46:32.564Z,99746.53
2023-04-24T14:48:59.742Z,99750.41
2023-04-24T14:51:26.819Z,99748.59
2023-04-24T14:53:54.150Z,99744.69
2023-04-24T14:56:21.357Z,99751.59
2023-04-24T14:58:48.440Z,99741.25
2023-04-24T15:01:17.365Z,99739.63
2023-04-24T15:03:45.421Z,99745.78
2023-04-24T15:06:13.050Z,99685.47
2023-04-24T15:08:40.100Z,99748.63
2023-04-24T15:11:07.366Z,99742.50
2023-04-24T15:13:34.390Z,99738.41
2023-04-24T15:16:01.576Z,99722.16
2023-04-24T15:18:30.112Z,99722.13
2023-04-24T15:20:57.567Z,99723.94
2023-04-24T15:23:24.641Z,99734.97
2023-04-24T15:25:51.829Z,99677.34
2023-04-24T15:28:19.075Z,99719.66
2023-04-24T15:30:46.238Z,99734.59
2023-04-24T15:33:13.365Z,99731.06
2023-04-24T15:35:41.482Z,99736.09
2023-04-24T15:38:09.098Z,99735.22
2023-04-24T15:40:36.203Z,99741.44
2023-04-24T15:43:03.165Z,99726.63
2023-04-24T15:45:31.309Z,99725.56
2023-04-24T15:47:58.575Z,99715.47
2023-04-24T15:50:27.143Z,99727.69
2023-04-24T15:52:54.375Z,99727.03
2023-04-24T15:55:21.670Z,99716.63
2023-04-24T15:57:48.929Z,99724.31
2023-04-24T16:00:16.761Z,99715.84
2023-04-24T16:02:43.971Z,99719.41
2023-04-24T16:05:11.896Z,99732.50
2023-04-24T16:07:39.470Z,99718.97
2023-04-24T16:10:06.850Z,99737.22
2023-04-24T16:12:33.982Z,99737.44
2023-04-24T16:15:01.544Z,99732.53
2023-04-24T16:17:29.196Z,99732.56
2023-04-24T16:19:56.209Z,99731.47
2023-04-24T16:22:23.300Z,99738.63
2023-04-24T16:24:50.505Z,99724.81
2023-04-24T16:27:17.600Z,99736.16
2023-04-24T16:29:44.825Z,99742.38
2023-04-24T16:32:11.894Z,99752.22
2023-04-24T16:34:38.904Z,99714.19
2023-04-24T16:37:06.831Z,99747.28
2023-04-24T16:39:34.244Z,99745.56
2023-04-24T16:42:01.999Z,99725.84
2023-04-24T16:44:29.090Z,99746.75
2023-04-24T16:46:56.896Z,99735.00
2023-04-24T16:49:24.159Z,99744.69
2023-04-24T16:51:51.335Z,99750.81
2023-04-24T16:54:18.329Z,99748.34
2023-04-24T16:56:45.380Z,99732.16
2023-04-24T16:59:12.643Z,99760.06
2023-04-24T17:01:39.851Z,99760.16
2023-04-24T17:04:07.143Z,99755.13
2023-04-24T17:06:35.038Z,99751.78
2023-04-24T17:09:02.200Z,99772.00
2023-04-24T17:11:31.236Z,99773.81
2023-04-24T17:14:01.459Z,99776.50
2023-04-24T17:16:29.167Z,99780.03
2023-04-24T17:18:56.335Z,99765.41
2023-04-24T17:21:23.456Z,99783.75
2023-04-24T17:23:50.544Z,99790.84
2023-04-24T17:26:17.633Z,99758.00
2023-04-24T17:28:44.648Z,99789.31
2023-04-24T17:31:11.683Z,99776.34
2023-04-24T17:33:38.906Z,99739.16
2023-04-24T17:36:07.408Z,99793.84
2023-04-24T17:38:34.816Z,99793.94
2023-04-24T17:41:01.839Z,99792.28
2023-04-24T17:43:28.872Z,99797.63
2023-04-24T17:45:56.570Z,99800.31
2023-04-24T17:48:23.908Z,99777.88
2023-04-24T17:50:51.875Z,99791.00
2023-04-24T17:53:19.470Z,99804.03
2023-04-24T17:55:46.849Z,99788.50
2023-04-24T17:58:15.131Z,99805.09
2023-04-24T18:00:42.494Z,99781.88
2023-04-24T18:03:10.805Z,99805.31
2023-04-24T18:05:39.464Z,99803.63
2023-04-24T18:08:07.665Z,99782.03
2023-04-24T18:10:38.222Z,99793.44
2023-04-24T18:13:05.814Z,99790.25
2023-04-24T18:15:32.989Z,99807.63
2023-04-24T18:18:00.141Z,99806.03
2023-04-24T18:20:27.657Z,99815.78
2023-04-24T18:22:55.190Z,99794.09
2023-04-24T18:25:26.967Z,99800.16
2023-04-24T18:27:55.956Z,99806.28
2023-04-24T18:30:24.345Z,99810.75
2023-04-24T18:32:53.832Z,99780.38
2023-04-24T18:35:21.650Z,99786.50
2023-04-24T18:37:50.102Z,99754.41
2023-04-24T18:40:17.822Z,99807.41
2023-04-24T18:42:45.226Z,99812.66
2023-04-24T18:45:15.246Z,99799.59
2023-04-24T18:47:43.888Z,99798.72
2023-04-24T18:50:11.841Z,99814.47
2023-04-24T18:52:39.348Z,99816.19
2023-04-24T18:55:07.259Z,99804.88
2023-04-24T18:57:34.759Z,99817.03
2023-04-24T19:00:02.024Z,99821.34
2023-04-24T19:02:34.736Z,99799.56
2023-04-24T19:05:03.299Z,99810.78
2023-04-24T19:07:33.343Z,99806.50
2023-04-24T19:10:00.606Z,99817.03
2023-04-24T19:12:27.753Z,99823.19
2023-04-24T19:14:56.270Z,99817.94
2023-04-24T19:17:25.373Z,99771.19
2023-04-24T19:19:52.899Z,99798.94
2023-04-24T19:22:20.944Z,99779.13
2023-04-24T19:24:48.121Z,99826.88
2023-04-24T19:27:15.456Z,99825.19
2023-04-24T19:29:42.578Z,99819.09
2023-04-24T19:32:09.689Z,99826.13
2023-04-24T19:34:38.384Z,99826.19
2023-04-24T19:37:08.295Z,99825.44
2023-04-24T19:39:35.788Z,99822.00
2023-04-24T19:42:07.202Z,99783.88
2023-04-24T19:44:35.018Z,99813.44
2023-04-24T19:47:02.248Z,99830.88
2023-04-24T19:49:29.270Z,99830.94
2023-04-24T19:51:56.376Z,99831.91
2023-04-24T19:54:23.786Z,99818.06
2023-04-24T19:56:51.073Z,99822.44
2023-04-24T19:59:18.138Z,99802.59
2023-04-24T20:01:45.438Z,99831.22
2023-04-24T20:04:12.775Z,99753.06
2023-04-24T20:06:40.142Z,99810.38
2023-04-24T20:09:07.273Z,99821.75
2023-04-24T20:11:34.604Z,99823.59
2023-04-24T20:14:03.735Z,99806.25
2023-04-24T20:16:31.423Z,99824.50
2023-04-24T20:18:59.411Z,99831.56
2023-04-24T20:21:26.882Z,99828.06
2023-04-24T20:23:54.251Z,99812.56
2023-04-24T20:26:21.670Z,99830.88
2023-04-24T20:28:49.121Z,99821.34
2023-04-24T20:31:16.620Z,99827.53
2023-04-24T20:33:45.695Z,99802.44
2023-04-24T20:36:12.867Z,99811.16
2023-04-24T20:38:40.010Z,99822.59
2023-04-24T20:41:08.948Z,99830.44
2023-04-24T20:43:36.768Z,99813.97
2023-04-24T20:46:03.980Z,99845.41
2023-04-24T20:48:31.610Z,99837.63
2023-04-24T20:50:58.780Z,99836.81
2023-04-24T20:53:25.937Z,99842.97
2023-04-24T20:55:53.077Z,99840.50
2023-04-24T20:58:22.198Z,99839.66
2023-04-24T21:00:49.959Z,99834.41
2023-04-24T21:03:17.214Z,99830.06
2023-04-24T21:05:44.405Z,99831.06
2023-04-24T21:08:12.191Z,99832.00
2023-04-24T21:10:39.237Z,99815.50
2023-04-24T21:13:06.304Z,99835.53
2023-04-24T21:15:34.209Z,99819.03
2023-04-24T21:18:01.927Z,99837.28
2023-04-24T21:20:29.115Z,99817.28
2023-04-24T21:22:56.201Z,99828.56
2023-04-24T21:25:23.320Z,99832.97
2023-04-24T21:27:50.366Z,99837.34
2023-04-24T21:30:17.545Z,99824.28
2023-04-24T21:32:44.836Z,99839.16
2023-04-24T21:35:11.889Z,99829.63
2023-04-24T21:37:39.940Z,99830.53
2023-04-24T21:40:08.242Z,99837.50
2023-04-24T21:42:35.830Z,99794.00
2023-04-24T21:45:03.171Z,99833.13
2023-04-24T21:47:32.324Z,99820.13
2023-04-24T21:49:59.408Z,99820.97
2023-04-24T21:52:26.486Z,99825.38
2023-04-24T21:54:53.579Z,99830.66
2023-04-24T21:57:20.894Z,99832.38
2023-04-24T21:59:48.273Z,99828.06
2023-04-24T22:02:15.501Z,99829.81
2023-04-24T22:04:43.197Z,99832.47
2023-04-24T22:07:10.394Z,99793.34
2023-04-24T22:09:38.857Z,99838.63
2023-04-24T22:12:06.150Z,99794.25
2023-04-24T22:14:33.324Z,99807.28
2023-04-24T22:17:00.393Z,99803.81
2023-04-24T22:19:28.431Z,99822.06
2023-04-24T22:21:55.600Z,99820.31
2023-04-24T22:24:22.761Z,99829.97
2023-04-24T22:26:50.076Z,99822.09
2023-04-24T22:29:17.108Z,99820.41
2023-04-24T22:31:45.842Z,99809.13
2023-04-24T22:34:12.928Z,99756.09
2023-04-24T22:36:39.960Z,99800.41
2023-04-24T22:39:07.477Z,99787.38
2023-04-24T22:41:34.768Z,99812.59
2023-04-24T22:44:02.318Z,99826.56
2023-04-24T22:46:31.234Z,99763.09
2023-04-24T22:48:58.586Z,99814.41
2023-04-24T22:51:26.194Z,99820.47
2023-04-24T22:53:54.667Z,99791.78
2023-04-24T22:56:21.819Z,99815.25
2023-04-24T22:58:48.820Z,99817.00
2023-04-24T23:01:15.882Z,99811.81
2023-04-24T23:03:43.463Z,99810.09
2023-04-24T23:06:10.800Z,99811.84
2023-04-24T23:08:37.874Z,99817.06
2023-04-24T23:11:04.983Z,99801.41
2023-04-24T23:13:32.078Z,99798.78
2023-04-24T23:15:59.131Z,99811.84
2023-04-24T23:18:26.214Z,99804.88
2023-04-24T23:20:53.349Z,99796.16
2023-04-24T23:23:20.388Z,99791.78
2023-04-24T23:25:47.591Z,99815.34
2023-04-24T23:28:14.696Z,99822.31
2023-04-24T23:30:43.310Z,99815.34
2023-04-24T23:33:11.002Z,99809.22
2023-04-24T23:35:38.074Z,99807.53
2023-04-24T23:38:05.132Z,99811.91
2023-04-24T23:40:32.115Z,99814.47
2023-04-24T23:43:06.687Z,99824.91
2023-04-24T23:45:35.605Z,99818.81
2023-04-24T23:48:04.195Z,99799.69
2023-04-24T23:50:31.424Z,99817.09
2023-04-24T23:52:59.333Z,99822.34
2023-04-24T23:55:26.367Z,99809.28
2023-04-24T23:57:53.911Z,99819.75
